createdAt,value
2022-11-20T00:02:16.935Z,101294.78
2022-11-20T00:04:49.891Z,101294.59
2022-11-20T00:07:22.910Z,101297.66
2022-11-20T00:09:55.674Z,101292.88
2022-11-20T00:12:29.917Z,101301.50
2022-11-20T00:15:02.725Z,101291.28
2022-11-20T00:17:35.455Z,101285.19
2022-11-20T00:20:09.002Z,101285.53
2022-11-20T00:22:41.966Z,101288.84
2022-11-20T00:25:14.647Z,101287.25
2022-11-20T00:27:48.741Z,101278.31
2022-11-20T00:30:21.666Z,101269.84
2022-11-20T00:32:54.584Z,101280.09
2022-11-20T00:35:27.341Z,101278.50
2022-11-20T00:38:00.165Z,101276.06
2022-11-20T00:40:33.143Z,101282.97
2022-11-20T00:43:07.167Z,101290.00
2022-11-20T00:45:41.462Z,101284.38
2022-11-20T00:48:14.242Z,101281.19
2022-11-20T00:50:47.206Z,101282.31
2022-11-20T00:53:21.246Z,101268.22
2022-11-20T00:55:58.039Z,101255.94
2022-11-20T00:58:34.800Z,101254.66
2022-11-20T01:01:09.449Z,101261.22
2022-11-20T01:03:44.022Z,101263.91
2022-11-20T01:06:18.887Z,101276.19
2022-11-20T01:08:52.997Z,101273.66
2022-11-20T01:11:27.902Z,101274.75
2022-11-20T01:14:03.124Z,101279.38
2022-11-20T01:16:38.452Z,101279.38
2022-11-20T01:19:17.524Z,101275.59
2022-11-20T01:21:53.327Z,101270.63
2022-11-20T01:24:26.101Z,101280.19
2022-11-20T01:26:59.253Z,101276.38
2022-11-20T01:29:33.457Z,101275.72
2022-11-20T01:32:06.534Z,101272.84
2022-11-20T01:34:39.315Z,101277.97
2022-11-20T01:37:12.054Z,101275.25
2022-11-20T01:39:45.222Z,101267.09
2022-11-20T01:42:35.776Z,101258.00
2022-11-20T01:45:41.687Z,101256.88
2022-11-20T01:48:16.197Z,101254.16
2022-11-20T01:50:49.133Z,101260.38
2022-11-20T01:53:24.677Z,101269.78
2022-11-20T01:56:01.567Z,101268.69
2022-11-20T01:58:40.116Z,101267.88
2022-11-20T02:01:13.583Z,101261.63
2022-11-20T02:03:49.248Z,101267.53
2022-11-20T02:06:26.494Z,101268.38
2022-11-20T02:08:59.385Z,101257.66
2022-11-20T02:11:32.605Z,101252.53
2022-11-20T02:14:04.968Z,101253.66
2022-11-20T02:16:40.521Z,101259.38
2022-11-20T02:19:24.105Z,101250.78
2022-11-20T02:22:04.082Z,101243.75
2022-11-20T02:24:38.379Z,101248.38
2022-11-20T02:27:13.907Z,101239.75
2022-11-20T02:29:51.547Z,101227.28
2022-11-20T02:32:27.948Z,101233.81
2022-11-20T02:35:08.214Z,101226.13
2022-11-20T02:37:42.389Z,101230.28
2022-11-20T02:40:17.301Z,101229.03
2022-11-20T02:42:53.798Z,101229.31
2022-11-20T02:45:26.985Z,101227.91
2022-11-20T02:47:59.720Z,101217.06
2022-11-20T02:50:32.750Z,101212.25
2022-11-20T02:53:05.465Z,101214.47
2022-11-20T02:55:39.629Z,101216.06
2022-11-20T02:58:12.791Z,101210.31
2022-11-20T03:00:47.605Z,101206.66
2022-11-20T03:03:20.411Z,101211.28
2022-11-20T03:05:53.167Z,101212.22
2022-11-20T03:08:25.915Z,101217.78
2022-11-20T03:11:04.557Z,101213.16
2022-11-20T03:13:37.721Z,101211.09
2022-11-20T03:16:12.511Z,101201.69
2022-11-20T03:18:45.673Z,101199.44
2022-11-20T03:21:18.571Z,101200.03
2022-11-20T03:23:51.529Z,101193.19
2022-11-20T03:26:27.620Z,101198.75
2022-11-20T03:29:02.330Z,101199.22
2022-11-20T03:31:37.152Z,101199.69
2022-11-20T03:34:11.745Z,101196.81
2022-11-20T03:36:45.010Z,101180.25
2022-11-20T03:39:18.855Z,101178.31
2022-11-20T03:41:53.135Z,101167.00
2022-11-20T03:44:26.057Z,101157.09
2022-11-20T03:46:58.661Z,101154.03
2022-11-20T03:49:31.390Z,101150.84
2022-11-20T03:52:04.080Z,101147.34
2022-11-20T03:54:37.073Z,101147.03
2022-11-20T03:57:11.022Z,101141.13
2022-11-20T03:59:43.948Z,101134.25
2022-11-20T04:02:16.646Z,101124.69
2022-11-20T04:04:49.810Z,101136.31
2022-11-20T04:07:22.531Z,101129.47
2022-11-20T04:09:55.284Z,101118.44
2022-11-20T04:12:29.333Z,101114.00
2022-11-20T04:15:02.898Z,101112.75
2022-11-20T04:17:35.860Z,101113.81
2022-11-20T04:20:08.899Z,101122.09
2022-11-20T04:22:41.839Z,101133.91
2022-11-20T04:25:14.821Z,101129.13
2022-11-20T04:27:48.974Z,101134.53
2022-11-20T04:30:21.756Z,101131.97
2022-11-20T04:32:54.905Z,101131.16
2022-11-20T04:35:27.675Z,101127.66
2022-11-20T04:38:00.392Z,101127.66
2022-11-20T04:40:33.295Z,101123.16
2022-11-20T04:43:07.225Z,101119.53
2022-11-20T04:45:40.071Z,101111.06
2022-11-20T04:48:12.869Z,101120.44
2022-11-20T04:50:45.668Z,101112.00
2022-11-20T04:53:18.482Z,101113.91
2022-11-20T04:55:51.714Z,101123.34
2022-11-20T04:58:25.908Z,101123.34
2022-11-20T05:01:04.288Z,101130.50
2022-11-20T05:03:42.123Z,101134.00
2022-11-20T05:06:16.962Z,101123.16
2022-11-20T05:08:50.075Z,101120.28
2022-11-20T05:11:23.590Z,101123.97
2022-11-20T05:14:01.051Z,101123.78
2022-11-20T05:16:36.478Z,101122.38
2022-11-20T05:19:09.574Z,101122.00
2022-11-20T05:21:42.290Z,101115.34
2022-11-20T05:24:15.060Z,101119.97
2022-11-20T05:26:47.801Z,101121.09
2022-11-20T05:29:22.183Z,101116.94
2022-11-20T05:31:55.017Z,101108.50
2022-11-20T05:34:27.769Z,101096.72
2022-11-20T05:37:00.554Z,101091.28
2022-11-20T05:39:33.528Z,101079.47
2022-11-20T05:42:23.528Z,101084.75
2022-11-20T05:44:58.118Z,101075.97
2022-11-20T05:47:35.979Z,101075.97
2022-11-20T05:50:09.297Z,101072.78
2022-11-20T05:52:42.065Z,101064.34
2022-11-20T05:55:14.984Z,101067.69
2022-11-20T05:57:47.668Z,101059.25
2022-11-20T06:00:22.097Z,101063.84
2022-11-20T06:02:56.027Z,101057.81
2022-11-20T06:05:28.815Z,101057.66
2022-11-20T06:08:02.643Z,101050.31
2022-11-20T06:10:35.561Z,101043.59
2022-11-20T06:13:08.508Z,101043.59
2022-11-20T06:15:42.614Z,101040.59
2022-11-20T06:18:15.570Z,101031.97
2022-11-20T06:20:48.332Z,101039.28
2022-11-20T06:23:21.043Z,101032.41
2022-11-20T06:25:53.771Z,101042.00
2022-11-20T06:28:26.743Z,101042.81
2022-11-20T06:31:00.991Z,101047.75
2022-11-20T06:33:34.646Z,101049.00
2022-11-20T06:36:10.896Z,101050.13
2022-11-20T06:38:44.901Z,101052.84
2022-11-20T06:41:21.903Z,101060.81
2022-11-20T06:43:54.873Z,101060.03
2022-11-20T06:46:32.076Z,101054.75
2022-11-20T06:49:05.804Z,101059.09
2022-11-20T06:51:39.380Z,101058.75
2022-11-20T06:54:12.469Z,101055.59
2022-11-20T06:56:49.641Z,101050.00
2022-11-20T06:59:22.882Z,101045.38
2022-11-20T07:01:57.229Z,101048.75
2022-11-20T07:04:30.329Z,101040.16
2022-11-20T07:07:03.403Z,101036.31
2022-11-20T07:09:37.593Z,101042.22
2022-11-20T07:12:10.719Z,101031.53
2022-11-20T07:14:46.371Z,101030.72
2022-11-20T07:17:20.753Z,101024.22
2022-11-20T07:19:53.727Z,101025.97
2022-11-20T07:22:27.615Z,101034.41
2022-11-20T07:25:00.897Z,101032.97
2022-11-20T07:27:36.523Z,101032.97
2022-11-20T07:30:10.291Z,101026.16
2022-11-20T07:32:52.597Z,101024.06
2022-11-20T07:35:26.082Z,101028.53
2022-11-20T07:37:59.046Z,101027.56
2022-11-20T07:40:31.841Z,101020.88
2022-11-20T07:43:04.886Z,101029.19
2022-11-20T07:45:37.574Z,101029.19
2022-11-20T07:48:11.811Z,101032.38
2022-11-20T07:50:45.838Z,101034.44
2022-11-20T07:53:21.759Z,101036.69
2022-11-20T07:55:54.695Z,101024.59
2022-11-20T07:58:27.358Z,101023.31
2022-11-20T08:01:00.354Z,101020.59
2022-11-20T08:03:39.343Z,101032.41
2022-11-20T08:06:12.430Z,101038.94
2022-11-20T08:08:45.269Z,101034.00
2022-11-20T08:11:35.652Z,101032.91
2022-11-20T08:14:14.217Z,101028.56
2022-11-20T08:16:48.899Z,101028.28
2022-11-20T08:19:23.292Z,101024.44
2022-11-20T08:21:57.431Z,101020.59
2022-11-20T08:24:30.459Z,101018.69
2022-11-20T08:27:03.461Z,101015.00
2022-11-20T08:29:36.923Z,101024.59
2022-11-20T08:32:12.453Z,101023.16
2022-11-20T08:34:47.428Z,101022.53
2022-11-20T08:37:20.594Z,101013.28
2022-11-20T08:39:54.577Z,100997.81
2022-11-20T08:42:27.421Z,101009.63
2022-11-20T08:45:00.248Z,101005.63
2022-11-20T08:47:32.976Z,101008.31
2022-11-20T08:50:11.082Z,101013.13
2022-11-20T08:52:44.292Z,101006.91
2022-11-20T08:55:19.795Z,101001.63
2022-11-20T08:57:52.717Z,100991.09
2022-11-20T09:00:25.627Z,100999.72
2022-11-20T09:02:59.673Z,100998.44
2022-11-20T09:05:34.415Z,100990.78
2022-11-20T09:08:07.929Z,100986.97
2022-11-20T09:10:41.662Z,100977.69
2022-11-20T09:13:14.570Z,100972.94
2022-11-20T09:15:47.414Z,100973.88
2022-11-20T09:18:20.613Z,100971.66
2022-11-20T09:21:00.480Z,100968.75
2022-11-20T09:23:38.147Z,100957.13
2022-11-20T09:26:16.313Z,100954.91
2022-11-20T09:28:55.372Z,100955.81
2022-11-20T09:31:31.184Z,100947.69
2022-11-20T09:34:05.073Z,100937.50
2022-11-20T09:36:39.532Z,100934.31
2022-11-20T09:39:14.394Z,100928.41
2022-11-20T09:42:16.881Z,100924.41
2022-11-20T09:45:12.628Z,100921.22
2022-11-20T09:48:00.668Z,100902.06
2022-11-20T09:50:38.642Z,100900.28
2022-11-20T09:53:18.550Z,100902.84
2022-11-20T09:55:51.746Z,100898.06
2022-11-20T09:58:33.635Z,100896.28
2022-11-20T10:01:14.108Z,100897.88
2022-11-20T10:03:55.860Z,100889.63
2022-11-20T10:06:33.159Z,100880.69
2022-11-20T10:09:20.322Z,100880.63
2022-11-20T10:12:07.875Z,100873.44
2022-11-20T10:14:58.519Z,100870.41
2022-11-20T10:17:56.779Z,100870.25
2022-11-20T10:20:44.402Z,100880.13
2022-11-20T10:23:38.951Z,100856.34
2022-11-20T10:26:21.956Z,100855.38
2022-11-20T10:29:11.215Z,100855.06
2022-11-20T10:31:47.394Z,100840.38
2022-11-20T10:34:26.602Z,100837.19
2022-11-20T10:37:04.687Z,100830.47
2022-11-20T10:39:44.429Z,100820.53
2022-11-20T10:42:26.849Z,100820.06
2022-11-20T10:45:13.398Z,100815.09
2022-11-20T10:47:46.536Z,100816.16
2022-11-20T10:50:24.201Z,100808.03
2022-11-20T10:53:07.291Z,100803.22
2022-11-20T10:55:45.727Z,100801.81
2022-11-20T10:58:28.233Z,100790.66
2022-11-20T11:01:06.280Z,100791.72
2022-11-20T11:03:39.601Z,100771.78
2022-11-20T11:06:19.445Z,100769.78
2022-11-20T11:09:32.197Z,100762.97
2022-11-20T11:12:09.763Z,100740.41
2022-11-20T11:14:49.704Z,100722.72
2022-11-20T11:17:29.349Z,100705.13
2022-11-20T11:20:04.128Z,100699.00
2022-11-20T11:22:46.963Z,100696.56
2022-11-20T11:25:35.496Z,100691.75
2022-11-20T11:28:23.057Z,100688.41
2022-11-20T11:31:04.834Z,100688.28
2022-11-20T11:33:40.263Z,100689.09
2022-11-20T11:36:21.951Z,100677.84
2022-11-20T11:38:55.687Z,100674.63
2022-11-20T11:41:34.117Z,100672.41
2022-11-20T11:44:37.366Z,100660.88
2022-11-20T11:47:20.881Z,100659.19
2022-11-20T11:50:03.436Z,100663.63
2022-11-20T11:52:47.678Z,100664.00
2022-11-20T11:55:31.282Z,100658.09
2022-11-20T11:58:15.795Z,100652.09
2022-11-20T12:00:56.972Z,100647.13
2022-11-20T12:03:37.277Z,100652.13
2022-11-20T12:06:14.725Z,100635.59
2022-11-20T12:08:53.616Z,100633.25
2022-11-20T12:11:35.237Z,100633.09
2022-11-20T12:14:17.422Z,100622.00
2022-11-20T12:16:50.534Z,100611.13
2022-11-20T12:19:25.014Z,100608.91
2022-11-20T12:22:06.432Z,100601.78
2022-11-20T12:24:47.844Z,100596.44
2022-11-20T12:27:46.202Z,100593.94
2022-11-20T12:30:23.508Z,100580.38
2022-11-20T12:33:28.090Z,100583.66
2022-11-20T12:36:12.184Z,100582.28
2022-11-20T12:38:56.928Z,100572.00
2022-11-20T12:42:06.734Z,100563.38
2022-11-20T12:45:10.273Z,100561.22
2022-11-20T12:48:00.820Z,100562.25
2022-11-20T12:51:13.444Z,100556.25
2022-11-20T12:53:53.831Z,100556.56
2022-11-20T12:56:35.389Z,100548.19
2022-11-20T12:59:25.584Z,100545.28
2022-11-20T13:02:05.186Z,100532.13
2022-11-20T13:04:58.137Z,100532.03
2022-11-20T13:07:32.610Z,100528.03
2022-11-20T13:10:17.739Z,100514.94
2022-11-20T13:12:58.191Z,100509.50
2022-11-20T13:15:46.644Z,100506.88
2022-11-20T13:18:22.936Z,100508.72
2022-11-20T13:20:55.739Z,100497.25
2022-11-20T13:23:30.072Z,100490.44
2022-11-20T13:26:17.124Z,100484.78
2022-11-20T13:29:02.144Z,100474.03
2022-11-20T13:31:36.976Z,100460.13
2022-11-20T13:34:14.414Z,100458.63
2022-11-20T13:36:54.897Z,100461.53
2022-11-20T13:39:29.526Z,100452.97
2022-11-20T13:42:22.759Z,100447.66
2022-11-20T13:44:57.293Z,100444.50
2022-11-20T13:47:31.233Z,100431.34
2022-11-20T13:50:06.564Z,100423.63
2022-11-20T13:52:48.691Z,100421.25
2022-11-20T13:55:28.500Z,100409.69
2022-11-20T13:58:21.471Z,100402.44
2022-11-20T14:01:02.944Z,100402.22
2022-11-20T14:04:05.709Z,100393.19
2022-11-20T14:06:30.356Z,100390.72
2022-11-20T14:09:03.342Z,100380.53
2022-11-20T14:11:36.208Z,100380.53
2022-11-20T14:14:18.485Z,100366.50
2022-11-20T14:16:51.954Z,100353.66
2022-11-20T14:19:31.360Z,100346.38
2022-11-20T14:22:22.152Z,100347.59
2022-11-20T14:25:08.314Z,100339.53
2022-11-20T14:27:42.975Z,100341.00
2022-11-20T14:30:20.398Z,100325.97
2022-11-20T14:32:56.521Z,100324.59
2022-11-20T14:35:31.753Z,100330.31
2022-11-20T14:38:05.406Z,100319.16
2022-11-20T14:40:38.511Z,100314.78
2022-11-20T14:43:20.682Z,100307.56
2022-11-20T14:46:03.230Z,100299.38
2022-11-20T14:48:41.376Z,100296.41
2022-11-20T14:51:24.992Z,100290.25
2022-11-20T14:53:58.004Z,100288.50
2022-11-20T14:56:30.690Z,100274.53
2022-11-20T14:59:03.767Z,100281.47
2022-11-20T15:01:38.464Z,100263.22
2022-11-20T15:04:12.711Z,100264.03
2022-11-20T15:06:52.322Z,100265.69
2022-11-20T15:09:25.393Z,100247.69
2022-11-20T15:11:59.292Z,100247.69
2022-11-20T15:14:34.977Z,100221.72
2022-11-20T15:17:13.648Z,100218.72
2022-11-20T15:19:46.723Z,100206.88
2022-11-20T15:22:20.981Z,100200.66
2022-11-20T15:24:53.963Z,100206.19
2022-11-20T15:27:26.775Z,100196.31
2022-11-20T15:29:59.623Z,100193.09
2022-11-20T15:32:33.884Z,100194.75
2022-11-20T15:35:07.599Z,100194.75
2022-11-20T15:37:41.097Z,100204.06
2022-11-20T15:40:14.213Z,100198.88
2022-11-20T15:43:00.841Z,100201.44
2022-11-20T15:45:40.031Z,100196.00
2022-11-20T15:48:18.431Z,100213.09
2022-11-20T15:50:58.396Z,100210.84
2022-11-20T15:53:31.791Z,100232.06
2022-11-20T15:56:04.834Z,100231.81
2022-11-20T15:58:37.644Z,100232.25
2022-11-20T16:01:12.674Z,100226.44
2022-11-20T16:03:49.283Z,100239.88
2022-11-20T16:06:22.198Z,100248.47
2022-11-20T16:08:55.134Z,100230.56
2022-11-20T16:11:30.064Z,100250.06
2022-11-20T16:14:22.862Z,100263.22
2022-11-20T16:16:55.941Z,100259.47
2022-11-20T16:19:30.021Z,100258.22
2022-11-20T16:22:03.398Z,100271.53
2022-11-20T16:24:36.518Z,100262.94
2022-11-20T16:27:13.240Z,100270.75
2022-11-20T16:29:46.699Z,100277.69
2022-11-20T16:32:19.814Z,100282.63
2022-11-20T16:34:54.489Z,100280.88
2022-11-20T16:37:30.223Z,100282.00
2022-11-20T16:40:12.202Z,100277.34
2022-11-20T16:42:45.594Z,100282.28
2022-11-20T16:45:25.301Z,100289.47
2022-11-20T16:47:59.966Z,100288.59
2022-11-20T16:50:34.446Z,100289.63
2022-11-20T16:53:09.020Z,100302.09
2022-11-20T16:55:44.375Z,100299.81
2022-11-20T16:58:17.864Z,100296.66
2022-11-20T17:00:51.966Z,100297.47
2022-11-20T17:03:24.894Z,100308.78
2022-11-20T17:05:59.334Z,100320.53
2022-11-20T17:08:36.205Z,100326.06
2022-11-20T17:11:10.649Z,100321.50
2022-11-20T17:13:45.138Z,100316.94
2022-11-20T17:16:20.551Z,100331.69
2022-11-20T17:18:59.751Z,100321.50
2022-11-20T17:21:41.340Z,100323.19
2022-11-20T17:24:18.211Z,100321.25
2022-11-20T17:26:51.346Z,100324.22
2022-11-20T17:29:28.043Z,100328.97
2022-11-20T17:32:01.273Z,100333.28
2022-11-20T17:34:36.578Z,100316.94
2022-11-20T17:37:11.206Z,100308.59
2022-11-20T17:39:44.867Z,100324.13
2022-11-20T17:42:36.646Z,100325.53
2022-11-20T17:45:09.861Z,100322.28
2022-11-20T17:47:44.980Z,100314.75
2022-11-20T17:50:22.466Z,100321.66
2022-11-20T17:53:14.794Z,100321.66
2022-11-20T17:56:13.772Z,100324.22
2022-11-20T17:58:46.997Z,100326.59
2022-11-20T18:01:20.933Z,100338.78
2022-11-20T18:03:56.717Z,100341.00
2022-11-20T18:06:35.609Z,100344.16
2022-11-20T18:09:10.502Z,100340.72
2022-11-20T18:11:44.745Z,100341.16
2022-11-20T18:14:32.452Z,100337.13
2022-11-20T18:17:07.029Z,100318.88
2022-11-20T18:19:51.544Z,100317.38
2022-11-20T18:22:34.082Z,100317.81
2022-11-20T18:25:09.422Z,100305.63
2022-11-20T18:27:46.910Z,100312.03
2022-11-20T18:30:29.259Z,100312.34
2022-11-20T18:33:05.472Z,100318.25
2022-11-20T18:35:43.315Z,100316.94
2022-11-20T18:38:19.082Z,100320.25
2022-11-20T18:40:59.623Z,100321.78
2022-11-20T18:43:58.331Z,100310.97
2022-11-20T18:46:31.478Z,100310.00
2022-11-20T18:49:04.261Z,100319.31
2022-11-20T18:51:39.016Z,100315.25
2022-11-20T18:54:12.904Z,100322.47
2022-11-20T18:56:50.966Z,100318.53
2022-11-20T18:59:23.968Z,100317.97
2022-11-20T19:01:56.937Z,100312.66
2022-11-20T19:04:30.465Z,100299.47
2022-11-20T19:07:03.611Z,100310.53
2022-11-20T19:09:37.877Z,100302.44
2022-11-20T19:12:13.557Z,100291.91
2022-11-20T19:14:49.710Z,100297.28
2022-11-20T19:17:24.593Z,100301.31
2022-11-20T19:19:57.774Z,100310.59
2022-11-20T19:22:34.269Z,100305.44
2022-11-20T19:25:08.493Z,100301.91
2022-11-20T19:27:42.795Z,100305.88
2022-11-20T19:30:20.614Z,100317.00
2022-11-20T19:33:08.652Z,100307.53
2022-11-20T19:35:42.421Z,100302.78
2022-11-20T19:38:19.890Z,100308.66
2022-11-20T19:40:53.151Z,100307.19
2022-11-20T19:43:27.583Z,100307.09
2022-11-20T19:46:00.858Z,100321.31
2022-11-20T19:48:35.070Z,100323.22
2022-11-20T19:51:13.895Z,100318.06
2022-11-20T19:53:47.252Z,100327.09
2022-11-20T19:56:23.567Z,100334.28
2022-11-20T19:59:03.015Z,100327.41
2022-11-20T20:01:40.596Z,100325.28
2022-11-20T20:04:13.998Z,100333.00
2022-11-20T20:06:47.348Z,100337.97
2022-11-20T20:09:22.969Z,100337.19
2022-11-20T20:12:00.687Z,100332.63
2022-11-20T20:14:39.629Z,100343.78
2022-11-20T20:17:14.080Z,100338.94
2022-11-20T20:19:47.584Z,100342.81
2022-11-20T20:22:25.965Z,100346.41
2022-11-20T20:25:15.477Z,100350.69
2022-11-20T20:27:51.046Z,100355.53
2022-11-20T20:30:25.535Z,100357.81
2022-11-20T20:32:58.722Z,100354.00
2022-11-20T20:35:31.735Z,100362.59
2022-11-20T20:38:05.150Z,100355.63
2022-11-20T20:40:38.469Z,100360.19
2022-11-20T20:43:17.234Z,100358.91
2022-11-20T20:45:52.562Z,100363.22
2022-11-20T20:48:30.063Z,100364.97
2022-11-20T20:51:03.666Z,100359.34
2022-11-20T20:53:40.560Z,100363.09
2022-11-20T20:56:13.713Z,100366.25
2022-11-20T20:58:48.796Z,100365.59
2022-11-20T21:01:28.536Z,100373.84
2022-11-20T21:04:04.240Z,100369.28
2022-11-20T21:06:37.204Z,100369.00
2022-11-20T21:09:10.306Z,100380.97
2022-11-20T21:11:43.023Z,100383.75
2022-11-20T21:14:16.523Z,100384.34
2022-11-20T21:16:50.638Z,100379.75
2022-11-20T21:19:23.480Z,100391.22
2022-11-20T21:22:03.159Z,100385.78
2022-11-20T21:24:37.410Z,100395.94
2022-11-20T21:27:10.471Z,100389.06
2022-11-20T21:29:43.086Z,100392.16
2022-11-20T21:32:17.395Z,100394.25
2022-11-20T21:34:50.186Z,100398.59
2022-11-20T21:37:22.781Z,100393.66
2022-11-20T21:39:56.405Z,100391.34
2022-11-20T21:42:29.315Z,100391.50
2022-11-20T21:45:02.056Z,100395.69
2022-11-20T21:47:36.094Z,100388.63
2022-11-20T21:50:10.567Z,100394.22
2022-11-20T21:52:43.324Z,100393.56
2022-11-20T21:55:16.000Z,100390.19
2022-11-20T21:57:48.756Z,100397.41
2022-11-20T22:00:21.740Z,100406.56
2022-11-20T22:02:55.608Z,100399.91
2022-11-20T22:05:28.324Z,100404.00
2022-11-20T22:08:01.079Z,100406.44
2022-11-20T22:10:34.396Z,100409.94
2022-11-20T22:13:24.460Z,100416.91
2022-11-20T22:16:02.352Z,100416.00
2022-11-20T22:18:36.732Z,100426.03
2022-11-20T22:21:09.609Z,100416.03
2022-11-20T22:23:42.635Z,100418.50
2022-11-20T22:26:15.957Z,100425.53
2022-11-20T22:28:49.604Z,100430.28
2022-11-20T22:31:24.143Z,100436.44
2022-11-20T22:33:59.979Z,100430.00
2022-11-20T22:36:33.567Z,100419.59
2022-11-20T22:39:07.393Z,100429.00
2022-11-20T22:41:40.165Z,100421.31
2022-11-20T22:44:14.323Z,100422.66
2022-11-20T22:46:47.256Z,100434.56
2022-11-20T22:49:21.570Z,100438.41
2022-11-20T22:51:55.536Z,100446.22
2022-11-20T22:54:28.350Z,100464.56
2022-11-20T22:57:01.205Z,100470.47
2022-11-20T22:59:33.869Z,100485.97
2022-11-20T23:02:06.841Z,100473.50
2022-11-20T23:04:40.923Z,100464.44
2022-11-20T23:07:13.743Z,100460.22
2022-11-20T23:09:46.478Z,100454.03
2022-11-20T23:12:19.206Z,100458.56
2022-11-20T23:14:51.812Z,100462.44
2022-11-20T23:17:24.605Z,100464.31
2022-11-20T23:19:58.670Z,100465.81
2022-11-20T23:22:33.098Z,100456.41
2022-11-20T23:25:06.804Z,100461.22
2022-11-20T23:27:39.550Z,100465.53
2022-11-20T23:30:13.236Z,100460.44
2022-11-20T23:32:46.064Z,100487.69
2022-11-20T23:35:20.047Z,100503.44
2022-11-20T23:37:52.963Z,100506.16
2022-11-20T23:40:25.753Z,100504.22
2022-11-20T23:43:17.175Z,100508.94
2022-11-20T23:45:51.427Z,100521.03
2022-11-20T23:48:25.966Z,100509.03
2022-11-20T23:51:00.470Z,100503.50
2022-11-20T23:53:33.656Z,100507.38
2022-11-20T23:56:06.899Z,100512.84
2022-11-20T23:58:40.067Z,100519.88
